sensor_id;sensor_type;location;lat;lon;timestamp;temperature;humidity
69382;DHT22;56560;50.692;12.844;2024-02-16T00:00:17;7.30;87.30
69382;DHT22;56560;50.692;12.844;2024-02-16T00:02:43;7.20;87.60
69382;DHT22;56560;50.692;12.844;2024-02-16T00:05:10;7.20;87.60
69382;DHT22;56560;50.692;12.844;2024-02-16T00:07:39;7.20;87.40
69382;DHT22;56560;50.692;12.844;2024-02-16T00:10:06;7.10;87.50
69382;DHT22;56560;50.692;12.844;2024-02-16T00:12:33;7.10;88.50
69382;DHT22;56560;50.692;12.844;2024-02-16T00:14:59;7.20;88.30
69382;DHT22;56560;50.692;12.844;2024-02-16T00:17:25;7.30;87.30
69382;DHT22;56560;50.692;12.844;2024-02-16T00:19:55;7.20;87.40
69382;DHT22;56560;50.692;12.844;2024-02-16T00:22:21;7.20;87.10
69382;DHT22;56560;50.692;12.844;2024-02-16T00:24:47;7.30;87.30
69382;DHT22;56560;50.692;12.844;2024-02-16T00:27:13;7.30;87.30
69382;DHT22;56560;50.692;12.844;2024-02-16T00:29:40;7.30;87.00
69382;DHT22;56560;50.692;12.844;2024-02-16T00:32:06;7.20;86.60
69382;DHT22;56560;50.692;12.844;2024-02-16T00:34:32;7.20;86.80
69382;DHT22;56560;50.692;12.844;2024-02-16T00:36:58;7.20;86.20
69382;DHT22;56560;50.692;12.844;2024-02-16T00:39:24;7.10;86.50
69382;DHT22;56560;50.692;12.844;2024-02-16T00:41:50;7.00;87.50
69382;DHT22;56560;50.692;12.844;2024-02-16T00:44:16;7.00;87.20
69382;DHT22;56560;50.692;12.844;2024-02-16T00:46:43;7.00;86.60
69382;DHT22;56560;50.692;12.844;2024-02-16T00:49:08;6.90;87.00
69382;DHT22;56560;50.692;12.844;2024-02-16T00:51:36;6.90;87.90
69382;DHT22;56560;50.692;12.844;2024-02-16T00:54:02;7.00;87.20
69382;DHT22;56560;50.692;12.844;2024-02-16T00:56:29;6.90;86.90
69382;DHT22;56560;50.692;12.844;2024-02-16T00:58:55;6.90;87.60
69382;DHT22;56560;50.692;12.844;2024-02-16T01:01:20;6.80;86.90
69382;DHT22;56560;50.692;12.844;2024-02-16T01:03:48;6.80;87.40
69382;DHT22;56560;50.692;12.844;2024-02-16T01:06:14;6.80;87.10
69382;DHT22;56560;50.692;12.844;2024-02-16T01:08:39;6.80;87.20
69382;DHT22;56560;50.692;12.844;2024-02-16T01:11:05;6.70;86.60
69382;DHT22;56560;50.692;12.844;2024-02-16T01:13:31;6.70;87.60
69382;DHT22;56560;50.692;12.844;2024-02-16T01:15:58;6.70;87.20
69382;DHT22;56560;50.692;12.844;2024-02-16T01:18:24;6.60;86.70
69382;DHT22;56560;50.692;12.844;2024-02-16T01:20:49;6.60;86.70
69382;DHT22;56560;50.692;12.844;2024-02-16T01:23:15;6.70;86.80
69382;DHT22;56560;50.692;12.844;2024-02-16T01:25:41;6.60;86.90
69382;DHT22;56560;50.692;12.844;2024-02-16T01:28:06;6.70;86.90
69382;DHT22;56560;50.692;12.844;2024-02-16T01:30:32;6.70;87.50
69382;DHT22;56560;50.692;12.844;2024-02-16T01:32:57;6.70;87.10
69382;DHT22;56560;50.692;12.844;2024-02-16T01:35:23;6.80;86.40
69382;DHT22;56560;50.692;12.844;2024-02-16T01:37:49;6.80;86.30
69382;DHT22;56560;50.692;12.844;2024-02-16T01:40:14;6.80;85.50
69382;DHT22;56560;50.692;12.844;2024-02-16T01:42:48;6.90;85.20
69382;DHT22;56560;50.692;12.844;2024-02-16T01:45:14;6.90;85.00
69382;DHT22;56560;50.692;12.844;2024-02-16T01:47:42;6.90;85.20
69382;DHT22;56560;50.692;12.844;2024-02-16T01:50:09;6.90;84.60
69382;DHT22;56560;50.692;12.844;2024-02-16T01:52:36;7.00;85.10
69382;DHT22;56560;50.692;12.844;2024-02-16T01:55:04;7.10;84.80
69382;DHT22;56560;50.692;12.844;2024-02-16T01:57:31;7.20;84.20
69382;DHT22;56560;50.692;12.844;2024-02-16T01:59:58;7.30;84.40
69382;DHT22;56560;50.692;12.844;2024-02-16T02:02:23;7.30;83.70
69382;DHT22;56560;50.692;12.844;2024-02-16T02:04:49;7.40;83.40
69382;DHT22;56560;50.692;12.844;2024-02-16T02:07:18;7.30;83.70
69382;DHT22;56560;50.692;12.844;2024-02-16T02:09:43;7.30;85.20
69382;DHT22;56560;50.692;12.844;2024-02-16T02:12:09;7.30;85.00
69382;DHT22;56560;50.692;12.844;2024-02-16T02:14:36;7.30;84.70
69382;DHT22;56560;50.692;12.844;2024-02-16T02:17:05;7.30;84.10
69382;DHT22;56560;50.692;12.844;2024-02-16T02:19:30;7.20;84.90
69382;DHT22;56560;50.692;12.844;2024-02-16T02:21:56;7.10;84.80
69382;DHT22;56560;50.692;12.844;2024-02-16T02:24:22;7.00;85.50
69382;DHT22;56560;50.692;12.844;2024-02-16T02:26:48;7.00;85.90
69382;DHT22;56560;50.692;12.844;2024-02-16T02:29:13;7.00;86.30
69382;DHT22;56560;50.692;12.844;2024-02-16T02:31:39;7.00;86.90
69382;DHT22;56560;50.692;12.844;2024-02-16T02:34:06;7.00;86.40
69382;DHT22;56560;50.692;12.844;2024-02-16T02:36:31;7.10;87.00
69382;DHT22;56560;50.692;12.844;2024-02-16T02:38:58;7.10;86.20
69382;DHT22;56560;50.692;12.844;2024-02-16T02:41:24;7.20;87.00
69382;DHT22;56560;50.692;12.844;2024-02-16T02:43:51;7.20;85.70
69382;DHT22;56560;50.692;12.844;2024-02-16T02:46:18;7.30;85.70
69382;DHT22;56560;50.692;12.844;2024-02-16T02:48:45;7.30;85.30
69382;DHT22;56560;50.692;12.844;2024-02-16T02:51:11;7.30;84.90
69382;DHT22;56560;50.692;12.844;2024-02-16T02:53:36;7.20;85.60
69382;DHT22;56560;50.692;12.844;2024-02-16T02:56:03;7.20;85.10
69382;DHT22;56560;50.692;12.844;2024-02-16T02:58:29;7.30;85.10
69382;DHT22;56560;50.692;12.844;2024-02-16T03:00:55;7.30;84.70
69382;DHT22;56560;50.692;12.844;2024-02-16T03:03:21;7.30;84.50
69382;DHT22;56560;50.692;12.844;2024-02-16T03:05:47;7.40;84.10
69382;DHT22;56560;50.692;12.844;2024-02-16T03:08:12;7.40;84.40
69382;DHT22;56560;50.692;12.844;2024-02-16T03:10:38;7.40;84.50
69382;DHT22;56560;50.692;12.844;2024-02-16T03:13:04;7.40;84.70
69382;DHT22;56560;50.692;12.844;2024-02-16T03:15:33;7.40;84.40
69382;DHT22;56560;50.692;12.844;2024-02-16T03:17:59;7.40;84.40
69382;DHT22;56560;50.692;12.844;2024-02-16T03:20:24;7.50;84.90
69382;DHT22;56560;50.692;12.844;2024-02-16T03:22:50;7.50;85.20
69382;DHT22;56560;50.692;12.844;2024-02-16T03:25:16;7.60;85.60
69382;DHT22;56560;50.692;12.844;2024-02-16T03:27:42;7.60;83.50
69382;DHT22;56560;50.692;12.844;2024-02-16T03:30:09;7.60;83.30
69382;DHT22;56560;50.692;12.844;2024-02-16T03:32:35;7.60;83.80
69382;DHT22;56560;50.692;12.844;2024-02-16T03:35:01;7.70;84.90
69382;DHT22;56560;50.692;12.844;2024-02-16T03:37:27;7.70;85.50
69382;DHT22;56560;50.692;12.844;2024-02-16T03:39:53;7.80;83.60
69382;DHT22;56560;50.692;12.844;2024-02-16T03:42:21;7.90;83.60
69382;DHT22;56560;50.692;12.844;2024-02-16T03:44:47;7.90;84.20
69382;DHT22;56560;50.692;12.844;2024-02-16T03:47:13;7.90;83.20
69382;DHT22;56560;50.692;12.844;2024-02-16T03:49:39;7.90;83.40
69382;DHT22;56560;50.692;12.844;2024-02-16T03:52:05;7.90;83.70
69382;DHT22;56560;50.692;12.844;2024-02-16T03:54:31;7.90;84.60
69382;DHT22;56560;50.692;12.844;2024-02-16T03:56:57;8.00;83.60
69382;DHT22;56560;50.692;12.844;2024-02-16T03:59:23;8.00;82.90
69382;DHT22;56560;50.692;12.844;2024-02-16T04:01:49;8.00;82.90
69382;DHT22;56560;50.692;12.844;2024-02-16T04:04:15;7.90;82.90
69382;DHT22;56560;50.692;12.844;2024-02-16T04:06:41;8.00;82.70
69382;DHT22;56560;50.692;12.844;2024-02-16T04:09:07;8.00;82.70
69382;DHT22;56560;50.692;12.844;2024-02-16T04:11:33;8.00;82.90
69382;DHT22;56560;50.692;12.844;2024-02-16T04:13:59;8.00;83.30
69382;DHT22;56560;50.692;12.844;2024-02-16T04:16:25;8.00;83.30
69382;DHT22;56560;50.692;12.844;2024-02-16T04:18:51;8.10;83.30
69382;DHT22;56560;50.692;12.844;2024-02-16T04:21:17;8.10;83.20
69382;DHT22;56560;50.692;12.844;2024-02-16T04:23:43;8.10;83.20
69382;DHT22;56560;50.692;12.844;2024-02-16T04:26:09;8.10;83.70
69382;DHT22;56560;50.692;12.844;2024-02-16T04:28:35;8.10;84.10
69382;DHT22;56560;50.692;12.844;2024-02-16T04:31:01;8.20;84.80
69382;DHT22;56560;50.692;12.844;2024-02-16T04:33:27;8.20;84.70
69382;DHT22;56560;50.692;12.844;2024-02-16T04:35:53;8.30;84.20
69382;DHT22;56560;50.692;12.844;2024-02-16T04:38:18;8.40;83.50
69382;DHT22;56560;50.692;12.844;2024-02-16T04:40:45;8.40;83.20
69382;DHT22;56560;50.692;12.844;2024-02-16T04:43:11;8.50;83.50
69382;DHT22;56560;50.692;12.844;2024-02-16T04:45:37;8.60;83.50
69382;DHT22;56560;50.692;12.844;2024-02-16T04:48:06;8.60;83.20
69382;DHT22;56560;50.692;12.844;2024-02-16T04:50:33;8.70;82.70
69382;DHT22;56560;50.692;12.844;2024-02-16T04:52:59;8.70;82.20
69382;DHT22;56560;50.692;12.844;2024-02-16T04:55:27;8.70;82.30
69382;DHT22;56560;50.692;12.844;2024-02-16T04:57:54;8.70;82.40
69382;DHT22;56560;50.692;12.844;2024-02-16T05:00:20;8.70;82.00
69382;DHT22;56560;50.692;12.844;2024-02-16T05:02:46;8.70;82.20
69382;DHT22;56560;50.692;12.844;2024-02-16T05:05:12;8.70;82.40
69382;DHT22;56560;50.692;12.844;2024-02-16T05:07:37;8.80;82.30
69382;DHT22;56560;50.692;12.844;2024-02-16T05:10:07;8.80;82.30
69382;DHT22;56560;50.692;12.844;2024-02-16T05:12:33;8.90;82.00
69382;DHT22;56560;50.692;12.844;2024-02-16T05:14:59;8.90;81.90
69382;DHT22;56560;50.692;12.844;2024-02-16T05:17:26;9.00;81.60
69382;DHT22;56560;50.692;12.844;2024-02-16T05:19:52;9.10;81.10
69382;DHT22;56560;50.692;12.844;2024-02-16T05:22:19;9.10;80.60
69382;DHT22;56560;50.692;12.844;2024-02-16T05:24:47;9.20;80.10
69382;DHT22;56560;50.692;12.844;2024-02-16T05:27:13;9.30;79.20
69382;DHT22;56560;50.692;12.844;2024-02-16T05:30:04;9.40;78.80
69382;DHT22;56560;50.692;12.844;2024-02-16T05:32:34;9.40;78.80
69382;DHT22;56560;50.692;12.844;2024-02-16T05:35:00;9.40;78.60
69382;DHT22;56560;50.692;12.844;2024-02-16T05:37:30;9.40;78.20
69382;DHT22;56560;50.692;12.844;2024-02-16T05:39:57;9.40;78.50
69382;DHT22;56560;50.692;12.844;2024-02-16T05:42:34;9.30;79.30
69382;DHT22;56560;50.692;12.844;2024-02-16T05:45:00;9.20;79.90
69382;DHT22;56560;50.692;12.844;2024-02-16T05:47:25;9.00;80.50
69382;DHT22;56560;50.692;12.844;2024-02-16T05:49:52;8.90;80.80
69382;DHT22;56560;50.692;12.844;2024-02-16T05:52:18;8.80;81.30
69382;DHT22;56560;50.692;12.844;2024-02-16T05:54:47;8.70;81.10
69382;DHT22;56560;50.692;12.844;2024-02-16T05:57:14;8.70;81.20
69382;DHT22;56560;50.692;12.844;2024-02-16T05:59:40;8.60;81.50
69382;DHT22;56560;50.692;12.844;2024-02-16T06:02:07;8.60;81.90
69382;DHT22;56560;50.692;12.844;2024-02-16T06:04:34;8.60;81.90
69382;DHT22;56560;50.692;12.844;2024-02-16T06:06:59;8.60;81.80
69382;DHT22;56560;50.692;12.844;2024-02-16T06:09:26;8.60;81.80
69382;DHT22;56560;50.692;12.844;2024-02-16T06:11:51;8.50;81.60
69382;DHT22;56560;50.692;12.844;2024-02-16T06:14:17;8.50;81.30
69382;DHT22;56560;50.692;12.844;2024-02-16T06:16:43;8.50;81.70
69382;DHT22;56560;50.692;12.844;2024-02-16T06:19:09;8.60;81.50
69382;DHT22;56560;50.692;12.844;2024-02-16T06:21:35;8.60;81.30
69382;DHT22;56560;50.692;12.844;2024-02-16T06:24:01;8.70;81.40
69382;DHT22;56560;50.692;12.844;2024-02-16T06:26:27;8.70;81.30
69382;DHT22;56560;50.692;12.844;2024-02-16T06:28:52;8.70;81.00
69382;DHT22;56560;50.692;12.844;2024-02-16T06:31:18;8.80;80.40
69382;DHT22;56560;50.692;12.844;2024-02-16T06:33:43;8.90;80.10
69382;DHT22;56560;50.692;12.844;2024-02-16T06:36:09;9.00;79.20
69382;DHT22;56560;50.692;12.844;2024-02-16T06:38:36;9.10;79.50
69382;DHT22;56560;50.692;12.844;2024-02-16T06:41:02;9.20;79.20
69382;DHT22;56560;50.692;12.844;2024-02-16T06:43:29;9.20;79.10
69382;DHT22;56560;50.692;12.844;2024-02-16T06:45:54;9.20;78.90
69382;DHT22;56560;50.692;12.844;2024-02-16T06:48:22;9.30;78.70
69382;DHT22;56560;50.692;12.844;2024-02-16T06:50:51;9.30;78.50
69382;DHT22;56560;50.692;12.844;2024-02-16T06:53:17;9.40;78.40
69382;DHT22;56560;50.692;12.844;2024-02-16T06:55:42;9.40;78.40
69382;DHT22;56560;50.692;12.844;2024-02-16T06:58:08;9.50;78.30
69382;DHT22;56560;50.692;12.844;2024-02-16T07:00:34;9.50;78.40
69382;DHT22;56560;50.692;12.844;2024-02-16T07:03:00;9.60;78.20
69382;DHT22;56560;50.692;12.844;2024-02-16T07:05:26;9.60;78.30
69382;DHT22;56560;50.692;12.844;2024-02-16T07:07:53;9.80;77.90
69382;DHT22;56560;50.692;12.844;2024-02-16T07:10:19;9.90;77.50
69382;DHT22;56560;50.692;12.844;2024-02-16T07:12:45;10.10;76.70
69382;DHT22;56560;50.692;12.844;2024-02-16T07:15:11;10.20;74.60
69382;DHT22;56560;50.692;12.844;2024-02-16T07:17:38;10.40;73.70
69382;DHT22;56560;50.692;12.844;2024-02-16T07:20:04;10.50;73.70
69382;DHT22;56560;50.692;12.844;2024-02-16T07:22:30;10.60;70.70
69382;DHT22;56560;50.692;12.844;2024-02-16T07:24:57;10.70;71.60
69382;DHT22;56560;50.692;12.844;2024-02-16T07:27:25;10.80;72.00
69382;DHT22;56560;50.692;12.844;2024-02-16T07:29:51;10.80;72.90
69382;DHT22;56560;50.692;12.844;2024-02-16T07:32:17;10.90;73.60
69382;DHT22;56560;50.692;12.844;2024-02-16T07:34:46;10.90;73.70
69382;DHT22;56560;50.692;12.844;2024-02-16T07:37:13;11.00;73.30
69382;DHT22;56560;50.692;12.844;2024-02-16T07:39:38;11.00;71.90
69382;DHT22;56560;50.692;12.844;2024-02-16T07:42:04;11.10;71.90
69382;DHT22;56560;50.692;12.844;2024-02-16T07:44:30;11.20;72.50
69382;DHT22;56560;50.692;12.844;2024-02-16T07:46:56;11.30;73.40
69382;DHT22;56560;50.692;12.844;2024-02-16T07:49:21;11.40;73.40
69382;DHT22;56560;50.692;12.844;2024-02-16T07:51:47;11.40;72.30
69382;DHT22;56560;50.692;12.844;2024-02-16T07:54:13;11.50;71.20
69382;DHT22;56560;50.692;12.844;2024-02-16T07:56:39;11.70;71.00
69382;DHT22;56560;50.692;12.844;2024-02-16T07:59:05;11.90;70.80
69382;DHT22;56560;50.692;12.844;2024-02-16T08:01:30;12.10;71.40
69382;DHT22;56560;50.692;12.844;2024-02-16T08:03:56;12.20;71.40
69382;DHT22;56560;50.692;12.844;2024-02-16T08:06:25;12.30;72.00
69382;DHT22;56560;50.692;12.844;2024-02-16T08:08:52;12.20;71.00
69382;DHT22;56560;50.692;12.844;2024-02-16T08:11:18;12.20;69.30
69382;DHT22;56560;50.692;12.844;2024-02-16T08:13:43;12.20;70.00
69382;DHT22;56560;50.692;12.844;2024-02-16T08:16:10;12.30;69.80
69382;DHT22;56560;50.692;12.844;2024-02-16T08:18:35;12.40;70.40
69382;DHT22;56560;50.692;12.844;2024-02-16T08:21:01;12.50;69.20
69382;DHT22;56560;50.692;12.844;2024-02-16T08:23:27;12.60;69.50
69382;DHT22;56560;50.692;12.844;2024-02-16T08:25:52;12.70;68.60
69382;DHT22;56560;50.692;12.844;2024-02-16T08:28:18;12.90;69.00
69382;DHT22;56560;50.692;12.844;2024-02-16T08:30:44;13.10;68.10
69382;DHT22;56560;50.692;12.844;2024-02-16T08:33:11;13.30;65.50
69382;DHT22;56560;50.692;12.844;2024-02-16T08:35:38;13.50;62.60
69382;DHT22;56560;50.692;12.844;2024-02-16T08:38:03;13.80;63.30
69382;DHT22;56560;50.692;12.844;2024-02-16T08:40:29;14.00;62.70
69382;DHT22;56560;50.692;12.844;2024-02-16T08:42:55;14.20;60.20
69382;DHT22;56560;50.692;12.844;2024-02-16T08:45:21;14.40;59.00
69382;DHT22;56560;50.692;12.844;2024-02-16T08:47:46;14.60;59.10
69382;DHT22;56560;50.692;12.844;2024-02-16T08:50:13;14.80;56.70
69382;DHT22;56560;50.692;12.844;2024-02-16T08:52:39;15.00;55.70
69382;DHT22;56560;50.692;12.844;2024-02-16T08:55:05;15.20;55.50
69382;DHT22;56560;50.692;12.844;2024-02-16T08:57:34;15.30;55.60
69382;DHT22;56560;50.692;12.844;2024-02-16T08:59:59;15.50;54.00
69382;DHT22;56560;50.692;12.844;2024-02-16T09:02:25;15.60;53.10
69382;DHT22;56560;50.692;12.844;2024-02-16T09:04:51;15.70;53.40
69382;DHT22;56560;50.692;12.844;2024-02-16T09:07:16;15.90;53.20
69382;DHT22;56560;50.692;12.844;2024-02-16T09:09:44;16.00;52.00
69382;DHT22;56560;50.692;12.844;2024-02-16T09:12:10;16.10;51.10
69382;DHT22;56560;50.692;12.844;2024-02-16T09:14:36;16.20;51.60
69382;DHT22;56560;50.692;12.844;2024-02-16T09:17:02;16.30;51.20
69382;DHT22;56560;50.692;12.844;2024-02-16T09:19:27;16.30;51.40
69382;DHT22;56560;50.692;12.844;2024-02-16T09:21:53;16.30;51.30
69382;DHT22;56560;50.692;12.844;2024-02-16T09:24:20;16.20;52.30
69382;DHT22;56560;50.692;12.844;2024-02-16T09:26:46;16.20;51.90
69382;DHT22;56560;50.692;12.844;2024-02-16T09:29:14;16.10;52.70
69382;DHT22;56560;50.692;12.844;2024-02-16T09:31:43;16.00;52.20
69382;DHT22;56560;50.692;12.844;2024-02-16T09:34:09;16.10;53.80
69382;DHT22;56560;50.692;12.844;2024-02-16T09:36:34;16.20;51.40
69382;DHT22;56560;50.692;12.844;2024-02-16T09:39:05;16.30;51.80
69382;DHT22;56560;50.692;12.844;2024-02-16T09:41:34;16.50;51.80
69382;DHT22;56560;50.692;12.844;2024-02-16T09:44:03;16.60;52.20
69382;DHT22;56560;50.692;12.844;2024-02-16T09:46:30;16.60;51.40
69382;DHT22;56560;50.692;12.844;2024-02-16T09:49:01;16.80;49.00
69382;DHT22;56560;50.692;12.844;2024-02-16T09:51:31;17.10;50.70
69382;DHT22;56560;50.692;12.844;2024-02-16T09:54:01;17.30;50.80
69382;DHT22;56560;50.692;12.844;2024-02-16T09:56:26;17.50;51.90
69382;DHT22;56560;50.692;12.844;2024-02-16T09:58:53;17.70;51.50
69382;DHT22;56560;50.692;12.844;2024-02-16T10:01:23;17.90;51.00
69382;DHT22;56560;50.692;12.844;2024-02-16T10:03:49;18.10;49.80
69382;DHT22;56560;50.692;12.844;2024-02-16T10:06:16;18.20;49.20
69382;DHT22;56560;50.692;12.844;2024-02-16T10:08:55;18.30;47.00
69382;DHT22;56560;50.692;12.844;2024-02-16T10:11:24;18.20;46.70
69382;DHT22;56560;50.692;12.844;2024-02-16T10:16:25;17.80;45.20
69382;DHT22;56560;50.692;12.844;2024-02-16T10:18:51;17.80;45.70
69382;DHT22;56560;50.692;12.844;2024-02-16T10:21:26;18.00;46.00
69382;DHT22;56560;50.692;12.844;2024-02-16T10:24:05;18.20;45.60
69382;DHT22;56560;50.692;12.844;2024-02-16T10:26:34;18.20;46.10
69382;DHT22;56560;50.692;12.844;2024-02-16T10:29:03;17.90;45.80
69382;DHT22;56560;50.692;12.844;2024-02-16T10:31:30;17.90;45.90
69382;DHT22;56560;50.692;12.844;2024-02-16T10:34:01;17.90;45.50
69382;DHT22;56560;50.692;12.844;2024-02-16T10:36:36;17.90;45.60
69382;DHT22;56560;50.692;12.844;2024-02-16T10:39:02;18.10;45.90
69382;DHT22;56560;50.692;12.844;2024-02-16T10:41:41;18.30;45.20
69382;DHT22;56560;50.692;12.844;2024-02-16T10:44:07;18.60;44.70
69382;DHT22;56560;50.692;12.844;2024-02-16T10:46:34;18.90;45.20
69382;DHT22;56560;50.692;12.844;2024-02-16T10:49:00;19.30;44.90
69382;DHT22;56560;50.692;12.844;2024-02-16T10:51:48;19.30;42.80
69382;DHT22;56560;50.692;12.844;2024-02-16T10:54:18;19.30;43.00
69382;DHT22;56560;50.692;12.844;2024-02-16T10:56:45;19.20;43.50
69382;DHT22;56560;50.692;12.844;2024-02-16T10:59:11;19.40;43.20
69382;DHT22;56560;50.692;12.844;2024-02-16T11:01:43;19.60;42.60
69382;DHT22;56560;50.692;12.844;2024-02-16T11:04:36;19.60;42.20
69382;DHT22;56560;50.692;12.844;2024-02-16T11:07:02;19.60;42.40
69382;DHT22;56560;50.692;12.844;2024-02-16T11:09:35;19.50;42.10
69382;DHT22;56560;50.692;12.844;2024-02-16T11:12:02;19.30;42.70
69382;DHT22;56560;50.692;12.844;2024-02-16T11:17:15;19.10;43.50
69382;DHT22;56560;50.692;12.844;2024-02-16T11:19:46;19.20;47.70
69382;DHT22;56560;50.692;12.844;2024-02-16T11:22:16;19.20;46.90
69382;DHT22;56560;50.692;12.844;2024-02-16T11:24:44;19.10;44.90
69382;DHT22;56560;50.692;12.844;2024-02-16T11:27:11;19.20;44.40
69382;DHT22;56560;50.692;12.844;2024-02-16T11:29:38;19.30;43.30
69382;DHT22;56560;50.692;12.844;2024-02-16T11:32:05;19.30;43.20
69382;DHT22;56560;50.692;12.844;2024-02-16T11:34:32;19.40;44.40
69382;DHT22;56560;50.692;12.844;2024-02-16T11:36:59;19.70;43.80
69382;DHT22;56560;50.692;12.844;2024-02-16T11:39:26;19.80;43.10
69382;DHT22;56560;50.692;12.844;2024-02-16T11:42:05;19.70;42.30
69382;DHT22;56560;50.692;12.844;2024-02-16T11:44:32;19.40;42.70
69382;DHT22;56560;50.692;12.844;2024-02-16T11:46:58;19.40;43.70
69382;DHT22;56560;50.692;12.844;2024-02-16T11:49:24;19.40;43.50
69382;DHT22;56560;50.692;12.844;2024-02-16T11:51:51;19.30;43.60
69382;DHT22;56560;50.692;12.844;2024-02-16T11:54:17;19.20;44.60
69382;DHT22;56560;50.692;12.844;2024-02-16T11:56:46;19.10;44.40
69382;DHT22;56560;50.692;12.844;2024-02-16T11:59:14;19.10;44.40
69382;DHT22;56560;50.692;12.844;2024-02-16T12:01:57;19.00;44.60
69382;DHT22;56560;50.692;12.844;2024-02-16T12:04:26;19.00;44.10
69382;DHT22;56560;50.692;12.844;2024-02-16T12:07:00;18.90;44.50
69382;DHT22;56560;50.692;12.844;2024-02-16T12:09:26;18.90;44.90
69382;DHT22;56560;50.692;12.844;2024-02-16T12:11:53;18.90;44.90
69382;DHT22;56560;50.692;12.844;2024-02-16T12:14:22;19.10;45.10
69382;DHT22;56560;50.692;12.844;2024-02-16T12:16:51;19.20;44.80
69382;DHT22;56560;50.692;12.844;2024-02-16T12:19:20;19.30;44.30
69382;DHT22;56560;50.692;12.844;2024-02-16T12:21:54;19.40;44.00
69382;DHT22;56560;50.692;12.844;2024-02-16T12:24:20;19.30;43.70
69382;DHT22;56560;50.692;12.844;2024-02-16T12:26:46;19.30;43.80
69382;DHT22;56560;50.692;12.844;2024-02-16T12:29:12;19.30;43.10
69382;DHT22;56560;50.692;12.844;2024-02-16T12:31:43;19.30;43.30
69382;DHT22;56560;50.692;12.844;2024-02-16T12:34:10;19.40;43.00
69382;DHT22;56560;50.692;12.844;2024-02-16T12:36:38;19.70;42.60
69382;DHT22;56560;50.692;12.844;2024-02-16T12:39:05;20.10;42.40
69382;DHT22;56560;50.692;12.844;2024-02-16T12:41:34;20.40;41.60
69382;DHT22;56560;50.692;12.844;2024-02-16T12:44:01;20.50;41.20
69382;DHT22;56560;50.692;12.844;2024-02-16T12:46:27;20.40;41.10
69382;DHT22;56560;50.692;12.844;2024-02-16T12:48:56;20.40;41.20
69382;DHT22;56560;50.692;12.844;2024-02-16T12:51:21;20.30;41.40
69382;DHT22;56560;50.692;12.844;2024-02-16T12:53:47;20.10;40.90
69382;DHT22;56560;50.692;12.844;2024-02-16T12:56:13;20.10;41.60
69382;DHT22;56560;50.692;12.844;2024-02-16T12:58:39;20.10;41.50
69382;DHT22;56560;50.692;12.844;2024-02-16T13:01:06;20.20;41.80
69382;DHT22;56560;50.692;12.844;2024-02-16T13:03:35;20.10;41.70
69382;DHT22;56560;50.692;12.844;2024-02-16T13:06:02;20.20;42.30
69382;DHT22;56560;50.692;12.844;2024-02-16T13:08:28;20.20;42.30
69382;DHT22;56560;50.692;12.844;2024-02-16T13:10:55;20.30;41.70
69382;DHT22;56560;50.692;12.844;2024-02-16T13:13:21;20.40;41.90
69382;DHT22;56560;50.692;12.844;2024-02-16T13:15:47;20.40;41.40
69382;DHT22;56560;50.692;12.844;2024-02-16T13:18:13;20.40;41.40
69382;DHT22;56560;50.692;12.844;2024-02-16T13:20:39;20.40;41.50
69382;DHT22;56560;50.692;12.844;2024-02-16T13:23:05;20.40;41.30
69382;DHT22;56560;50.692;12.844;2024-02-16T13:25:30;20.40;41.40
69382;DHT22;56560;50.692;12.844;2024-02-16T13:27:56;20.40;41.40
69382;DHT22;56560;50.692;12.844;2024-02-16T13:30:22;20.60;41.50
69382;DHT22;56560;50.692;12.844;2024-02-16T13:32:48;20.70;41.30
69382;DHT22;56560;50.692;12.844;2024-02-16T13:35:14;20.90;41.20
69382;DHT22;56560;50.692;12.844;2024-02-16T13:37:40;21.20;40.90
69382;DHT22;56560;50.692;12.844;2024-02-16T13:40:09;21.50;40.20
69382;DHT22;56560;50.692;12.844;2024-02-16T13:42:40;21.80;40.20
69382;DHT22;56560;50.692;12.844;2024-02-16T13:45:10;22.00;39.00
69382;DHT22;56560;50.692;12.844;2024-02-16T13:47:37;21.90;39.70
69382;DHT22;56560;50.692;12.844;2024-02-16T13:50:08;21.80;39.70
69382;DHT22;56560;50.692;12.844;2024-02-16T13:52:34;21.50;39.90
69382;DHT22;56560;50.692;12.844;2024-02-16T13:55:01;21.30;39.80
69382;DHT22;56560;50.692;12.844;2024-02-16T13:57:26;21.00;40.70
69382;DHT22;56560;50.692;12.844;2024-02-16T13:59:52;20.80;41.10
69382;DHT22;56560;50.692;12.844;2024-02-16T14:02:18;20.70;41.40
69382;DHT22;56560;50.692;12.844;2024-02-16T14:04:45;20.50;41.50
69382;DHT22;56560;50.692;12.844;2024-02-16T14:07:11;20.30;41.50
69382;DHT22;56560;50.692;12.844;2024-02-16T14:09:37;20.20;41.50
69382;DHT22;56560;50.692;12.844;2024-02-16T14:12:03;20.10;41.40
69382;DHT22;56560;50.692;12.844;2024-02-16T14:14:29;20.00;40.30
69382;DHT22;56560;50.692;12.844;2024-02-16T14:16:54;19.90;41.70
69382;DHT22;56560;50.692;12.844;2024-02-16T14:19:22;19.80;40.50
69382;DHT22;56560;50.692;12.844;2024-02-16T14:21:47;19.70;38.90
69382;DHT22;56560;50.692;12.844;2024-02-16T14:24:13;19.50;40.00
69382;DHT22;56560;50.692;12.844;2024-02-16T14:26:39;19.40;40.00
69382;DHT22;56560;50.692;12.844;2024-02-16T14:29:05;19.30;40.80
69382;DHT22;56560;50.692;12.844;2024-02-16T14:31:32;19.30;40.80
69382;DHT22;56560;50.692;12.844;2024-02-16T14:33:59;19.20;41.20
69382;DHT22;56560;50.692;12.844;2024-02-16T14:36:25;19.20;41.40
69382;DHT22;56560;50.692;12.844;2024-02-16T14:38:51;19.10;41.50
69382;DHT22;56560;50.692;12.844;2024-02-16T14:41:16;19.00;42.00
69382;DHT22;56560;50.692;12.844;2024-02-16T14:43:42;18.90;42.10
69382;DHT22;56560;50.692;12.844;2024-02-16T14:46:08;18.80;42.30
69382;DHT22;56560;50.692;12.844;2024-02-16T14:48:35;18.70;42.60
69382;DHT22;56560;50.692;12.844;2024-02-16T14:51:01;18.60;42.90
69382;DHT22;56560;50.692;12.844;2024-02-16T14:53:28;18.60;43.10
69382;DHT22;56560;50.692;12.844;2024-02-16T14:56:01;18.60;43.10
69382;DHT22;56560;50.692;12.844;2024-02-16T14:58:28;18.50;43.60
69382;DHT22;56560;50.692;12.844;2024-02-16T15:00:54;18.50;43.40
69382;DHT22;56560;50.692;12.844;2024-02-16T15:03:22;18.30;43.70
69382;DHT22;56560;50.692;12.844;2024-02-16T15:05:48;18.20;44.00
69382;DHT22;56560;50.692;12.844;2024-02-16T15:08:13;18.10;44.60
69382;DHT22;56560;50.692;12.844;2024-02-16T15:10:40;18.00;44.70
69382;DHT22;56560;50.692;12.844;2024-02-16T15:13:06;17.80;45.30
69382;DHT22;56560;50.692;12.844;2024-02-16T15:15:31;17.70;45.60
69382;DHT22;56560;50.692;12.844;2024-02-16T15:17:57;17.50;46.00
69382;DHT22;56560;50.692;12.844;2024-02-16T15:20:26;17.40;46.40
69382;DHT22;56560;50.692;12.844;2024-02-16T15:22:53;17.20;46.60
69382;DHT22;56560;50.692;12.844;2024-02-16T15:25:23;17.10;47.20